createdAt,value
2019-03-11T00:00:30.321Z,70.30
2019-03-11T00:02:58.808Z,70.30
2019-03-11T00:05:27.294Z,70.50
2019-03-11T00:07:55.826Z,70.90
2019-03-11T00:10:24.248Z,71.10
2019-03-11T00:12:52.627Z,71.50
2019-03-11T00:15:22.157Z,72.70
2019-03-11T00:17:50.630Z,73.10
2019-03-11T00:20:19.108Z,73.60
2019-03-11T00:22:47.600Z,74.20
2019-03-11T00:25:16.006Z,74.70
2019-03-11T00:27:44.470Z,75.60
2019-03-11T00:30:33.997Z,74.90
2019-03-11T00:33:02.468Z,74.90
2019-03-11T00:35:30.931Z,74.80
2019-03-11T00:37:59.441Z,75.10
2019-03-11T00:40:27.844Z,75.50
2019-03-11T00:42:56.223Z,75.60
2019-03-11T00:45:24.722Z,75.70
2019-03-11T00:48:01.540Z,75.60
2019-03-11T00:50:23.166Z,75.70
2019-03-11T00:52:51.596Z,75.70
2019-03-11T00:55:19.894Z,75.80
2019-03-11T00:57:48.342Z,75.90
2019-03-11T01:00:31.874Z,75.90
2019-03-11T01:03:00.245Z,76.00
2019-03-11T01:05:28.739Z,75.90
2019-03-11T01:07:57.065Z,75.50
2019-03-11T01:10:25.516Z,75.40
2019-03-11T01:12:54.012Z,75.50
2019-03-11T01:15:22.409Z,75.40
2019-03-11T01:17:50.833Z,75.60
2019-03-11T01:20:19.403Z,75.90
2019-03-11T01:22:49.043Z,76.10
2019-03-11T01:25:17.425Z,76.10
2019-03-11T01:27:45.853Z,76.40
2019-03-11T01:30:33.759Z,76.70
2019-03-11T01:33:02.337Z,76.70
2019-03-11T01:35:30.840Z,76.70
2019-03-11T01:37:59.287Z,77.10
2019-03-11T01:40:27.818Z,77.30
2019-03-11T01:42:56.281Z,77.30
2019-03-11T01:45:24.638Z,77.20
2019-03-11T01:47:53.175Z,77.30
2019-03-11T01:50:21.596Z,77.40
2019-03-11T01:52:50.004Z,77.50
2019-03-11T01:55:18.544Z,77.50
2019-03-11T01:57:47.012Z,78.30
2019-03-11T02:00:34.974Z,77.40
2019-03-11T02:03:03.405Z,77.40
2019-03-11T02:05:31.868Z,77.20
2019-03-11T02:08:00.353Z,76.90
2019-03-11T02:10:28.707Z,76.70
2019-03-11T02:12:57.214Z,77.10
2019-03-11T02:15:25.608Z,76.90
2019-03-11T02:17:54.097Z,76.80
2019-03-11T02:20:22.553Z,76.80
2019-03-11T02:22:51.048Z,76.50
2019-03-11T02:25:19.533Z,76.40
2019-03-11T02:27:49.046Z,76.10
2019-03-11T02:30:18.060Z,75.80
2019-03-11T02:32:46.503Z,75.70
2019-03-11T02:35:27.196Z,75.60
2019-03-11T02:37:56.161Z,75.50
2019-03-11T02:40:24.702Z,75.60
2019-03-11T02:42:53.339Z,75.60
2019-03-11T02:45:21.821Z,75.70
2019-03-11T02:47:50.375Z,75.70
2019-03-11T02:50:18.803Z,75.70
2019-03-11T02:52:47.298Z,75.70
2019-03-11T02:55:15.761Z,75.70
2019-03-11T02:57:44.207Z,75.80
2019-03-11T03:00:20.968Z,75.90
2019-03-11T03:02:57.084Z,76.20
2019-03-11T03:05:29.876Z,76.40
2019-03-11T03:07:58.330Z,76.40
2019-03-11T03:10:26.879Z,76.50
2019-03-11T03:12:55.245Z,76.60
2019-03-11T03:15:23.796Z,76.60
2019-03-11T03:17:52.423Z,76.40
2019-03-11T03:20:20.879Z,76.20
2019-03-11T03:22:49.334Z,76.10
2019-03-11T03:25:32.160Z,75.90
2019-03-11T03:27:48.106Z,75.70
2019-03-11T03:30:20.200Z,76.20
2019-03-11T03:32:48.615Z,75.10
2019-03-11T03:35:17.114Z,74.90
2019-03-11T03:37:45.541Z,74.50
2019-03-11T03:40:16.967Z,74.40
2019-03-11T03:42:45.758Z,74.60
2019-03-11T03:45:47.362Z,74.60
2019-03-11T03:48:15.883Z,74.70
2019-03-11T03:50:44.269Z,74.60
2019-03-11T03:53:12.706Z,74.40
2019-03-11T03:55:41.275Z,74.30
2019-03-11T03:58:09.660Z,74.40
2019-03-11T04:00:38.125Z,74.20
2019-03-11T04:03:06.646Z,74.00
2019-03-11T04:05:35.070Z,74.00
2019-03-11T04:08:03.363Z,73.90
2019-03-11T04:10:32.924Z,73.90
2019-03-11T04:13:01.645Z,73.80
2019-03-11T04:15:49.833Z,73.80
2019-03-11T04:18:24.123Z,73.80
2019-03-11T04:20:52.558Z,73.80
2019-03-11T04:23:21.011Z,73.80
2019-03-11T04:25:49.475Z,73.70
2019-03-11T04:28:17.976Z,73.70
2019-03-11T04:30:46.354Z,73.70
2019-03-11T04:33:14.923Z,73.30
2019-03-11T04:35:43.384Z,73.10
2019-03-11T04:38:11.834Z,73.30
2019-03-11T04:40:40.223Z,73.10
2019-03-11T04:43:08.959Z,73.20
2019-03-11T04:45:37.235Z,73.20
2019-03-11T04:48:05.670Z,73.00
2019-03-11T04:50:34.188Z,72.70
2019-03-11T04:53:02.617Z,72.60
2019-03-11T04:55:50.661Z,72.60
2019-03-11T04:58:19.148Z,72.30
2019-03-11T05:00:47.671Z,72.10
2019-03-11T05:03:16.195Z,71.90
2019-03-11T05:05:44.758Z,71.70
2019-03-11T05:08:13.185Z,71.20
2019-03-11T05:10:41.539Z,70.70
2019-03-11T05:13:10.047Z,70.00
2019-03-11T05:15:38.515Z,69.00
2019-03-11T05:18:06.934Z,68.30
2019-03-11T05:20:35.422Z,67.80
2019-03-11T05:23:03.818Z,67.30
2019-03-11T05:25:32.134Z,66.80
2019-03-11T05:28:00.644Z,66.30
2019-03-11T05:30:29.097Z,66.80
2019-03-11T05:32:57.447Z,65.70
2019-03-11T05:35:25.982Z,65.60
2019-03-11T05:37:54.405Z,65.50
2019-03-11T05:40:22.790Z,65.60
2019-03-11T05:42:51.289Z,65.70
2019-03-11T05:45:20.153Z,65.80
2019-03-11T05:47:48.564Z,65.90
2019-03-11T05:50:17.811Z,66.00
2019-03-11T05:52:46.233Z,66.20
2019-03-11T05:55:14.757Z,66.30
2019-03-11T05:57:43.233Z,66.30
2019-03-11T06:00:26.021Z,66.50
2019-03-11T06:02:54.516Z,66.70
2019-03-11T06:05:22.920Z,66.90
2019-03-11T06:07:51.402Z,66.90
2019-03-11T06:10:19.934Z,66.80
2019-03-11T06:12:48.399Z,66.70
2019-03-11T06:15:16.812Z,66.60
2019-03-11T06:17:45.485Z,66.40
2019-03-11T06:20:32.943Z,65.90
2019-03-11T06:23:03.085Z,65.40
2019-03-11T06:25:31.487Z,64.80
2019-03-11T06:27:59.902Z,64.10
2019-03-11T06:30:28.521Z,63.60
2019-03-11T06:32:56.873Z,63.10
2019-03-11T06:35:25.195Z,63.00
2019-03-11T06:37:53.587Z,62.20
2019-03-11T06:40:22.069Z,61.90
2019-03-11T06:42:50.461Z,62.50
2019-03-11T06:45:18.914Z,61.20
2019-03-11T06:47:47.332Z,60.70
2019-03-11T06:50:15.720Z,60.00
2019-03-11T06:52:44.174Z,59.50
2019-03-11T06:55:12.939Z,59.10
2019-03-11T06:57:41.357Z,58.80
2019-03-11T07:00:15.493Z,58.50
2019-03-11T07:02:44.031Z,58.20
2019-03-11T07:05:20.000Z,57.60
2019-03-11T07:07:42.569Z,57.20
2019-03-11T07:10:16.289Z,56.90
2019-03-11T07:12:44.721Z,56.70
2019-03-11T07:15:14.419Z,56.40
2019-03-11T07:17:42.858Z,56.00
2019-03-11T07:20:13.800Z,55.80
2019-03-11T07:22:42.189Z,55.40
2019-03-11T07:25:10.765Z,55.00
2019-03-11T07:27:39.217Z,54.70
2019-03-11T07:30:13.702Z,54.30
2019-03-11T07:32:42.260Z,53.80
2019-03-11T07:35:10.713Z,53.40
2019-03-11T07:37:40.654Z,53.20
2019-03-11T07:40:14.253Z,52.90
2019-03-11T07:42:42.818Z,52.70
2019-03-11T07:45:12.593Z,52.60
2019-03-11T07:47:41.122Z,51.90
2019-03-11T07:50:10.585Z,52.10
2019-03-11T07:52:39.013Z,51.70
2019-03-11T07:55:11.937Z,51.50
2019-03-11T07:57:40.315Z,51.30
2019-03-11T08:00:21.220Z,50.50
2019-03-11T08:02:49.525Z,49.90
2019-03-11T08:05:18.089Z,49.20
2019-03-11T08:07:46.576Z,48.00
2019-03-11T08:10:22.936Z,47.30
2019-03-11T08:12:51.329Z,46.60
2019-03-11T08:15:19.762Z,45.30
2019-03-11T08:17:48.205Z,44.50
2019-03-11T08:20:17.011Z,42.40
2019-03-11T08:22:45.386Z,41.20
2019-03-11T08:25:14.958Z,39.90
2019-03-11T08:27:43.387Z,39.50
2019-03-11T08:30:17.578Z,39.20
2019-03-11T08:32:46.113Z,38.60
2019-03-11T08:35:14.591Z,37.30
2019-03-11T08:37:43.005Z,36.20
2019-03-11T08:40:18.754Z,35.60
2019-03-11T08:42:47.198Z,34.90
2019-03-11T08:45:19.222Z,34.90
2019-03-11T08:47:47.677Z,33.80
2019-03-11T08:50:16.761Z,33.60
2019-03-11T08:52:45.231Z,33.90
2019-03-11T08:55:33.149Z,34.10
2019-03-11T08:58:01.510Z,33.60
2019-03-11T09:00:29.955Z,32.50
2019-03-11T09:02:58.486Z,31.70
2019-03-11T09:05:26.950Z,31.30
2019-03-11T09:07:55.397Z,31.20
2019-03-11T09:10:23.756Z,31.10
2019-03-11T09:12:52.146Z,30.90
2019-03-11T09:15:22.284Z,30.60
2019-03-11T09:17:50.663Z,30.40
2019-03-11T09:20:19.270Z,30.00
2019-03-11T09:22:47.758Z,29.70
2019-03-11T09:25:19.025Z,29.90
2019-03-11T09:27:47.546Z,30.10
2019-03-11T09:30:18.403Z,29.30
2019-03-11T09:32:46.882Z,29.00
2019-03-11T09:35:15.347Z,28.70
2019-03-11T09:37:43.857Z,28.00
2019-03-11T09:40:19.655Z,28.10
2019-03-11T09:42:48.000Z,28.20
2019-03-11T09:45:18.573Z,28.10
2019-03-11T09:47:47.177Z,27.60
2019-03-11T09:50:16.168Z,27.70
2019-03-11T09:52:44.623Z,27.90
2019-03-11T09:55:15.408Z,27.50
2019-03-11T09:57:43.766Z,27.20
2019-03-11T10:00:21.211Z,27.00
2019-03-11T10:02:52.642Z,27.10
2019-03-11T10:05:19.805Z,27.30
2019-03-11T10:07:48.366Z,27.30
2019-03-11T10:10:22.338Z,27.10
2019-03-11T10:12:50.796Z,26.70
2019-03-11T10:15:20.383Z,26.10
2019-03-11T10:17:48.805Z,25.80
2019-03-11T10:20:17.925Z,25.30
2019-03-11T10:22:46.456Z,24.80
2019-03-11T10:25:16.271Z,24.60
2019-03-11T10:27:44.813Z,25.30
2019-03-11T10:30:18.261Z,24.80
2019-03-11T10:32:46.764Z,24.70
2019-03-11T10:35:30.795Z,25.00
2019-03-11T10:37:46.375Z,25.50
2019-03-11T10:40:23.747Z,25.80
2019-03-11T10:42:52.294Z,25.80
2019-03-11T10:45:30.379Z,25.70
2019-03-11T10:47:50.887Z,25.50
2019-03-11T10:50:20.097Z,25.10
2019-03-11T10:52:48.531Z,25.30
2019-03-11T10:55:18.149Z,25.00
2019-03-11T10:57:46.652Z,24.60
2019-03-11T11:00:18.217Z,24.70
2019-03-11T11:02:46.679Z,24.50
2019-03-11T11:05:15.472Z,24.50
2019-03-11T11:07:43.843Z,24.30
2019-03-11T11:10:16.002Z,23.50
2019-03-11T11:12:44.672Z,23.20
2019-03-11T11:15:24.293Z,23.20
2019-03-11T11:17:52.699Z,23.10
2019-03-11T11:20:22.010Z,23.00
2019-03-11T11:22:50.653Z,22.90
2019-03-11T11:25:24.564Z,22.90
2019-03-11T11:27:52.967Z,23.20
2019-03-11T11:30:31.509Z,23.40
2019-03-11T11:33:19.365Z,23.00
2019-03-11T11:35:47.860Z,22.60
2019-03-11T11:38:16.230Z,22.30
2019-03-11T11:40:44.702Z,22.20
2019-03-11T11:43:13.259Z,21.90
2019-03-11T11:45:41.949Z,21.10
2019-03-11T11:48:10.301Z,20.90
2019-03-11T11:50:38.633Z,20.90
2019-03-11T11:53:07.060Z,20.50
2019-03-11T11:55:35.512Z,20.10
2019-03-11T11:58:04.060Z,20.00
2019-03-11T12:00:34.120Z,19.90
2019-03-11T12:03:02.512Z,19.80
2019-03-11T12:05:30.906Z,19.80
2019-03-11T12:07:59.355Z,19.80
2019-03-11T12:10:31.896Z,20.00
2019-03-11T12:13:00.450Z,19.90
2019-03-11T12:15:29.025Z,19.80
2019-03-11T12:17:57.488Z,19.80
2019-03-11T12:20:26.962Z,20.00
2019-03-11T12:22:55.520Z,20.30
2019-03-11T12:25:23.956Z,20.30
2019-03-11T12:27:54.233Z,20.10
2019-03-11T12:30:43.675Z,20.20
2019-03-11T12:33:12.096Z,20.00
2019-03-11T12:35:40.501Z,20.30
2019-03-11T12:38:09.002Z,20.40
2019-03-11T12:40:37.412Z,20.30
2019-03-11T12:43:05.824Z,20.10
2019-03-11T12:45:34.354Z,20.30
2019-03-11T12:48:02.818Z,19.90
2019-03-11T12:50:32.182Z,20.50
2019-03-11T12:53:00.658Z,20.10
2019-03-11T12:55:29.040Z,20.20
2019-03-11T12:57:57.493Z,20.60
2019-03-11T13:00:26.228Z,20.80
2019-03-11T13:03:14.197Z,21.00
2019-03-11T13:05:42.621Z,21.10
2019-03-11T13:08:11.042Z,21.30
2019-03-11T13:10:39.529Z,21.10
2019-03-11T13:13:07.887Z,20.60
2019-03-11T13:15:36.321Z,20.30
2019-03-11T13:18:33.514Z,20.60
2019-03-11T13:21:08.156Z,20.30
2019-03-11T13:23:36.612Z,20.90
2019-03-11T13:26:05.061Z,22.40
2019-03-11T13:28:33.630Z,23.20
2019-03-11T13:31:02.103Z,23.70
2019-03-11T13:33:30.514Z,23.90
2019-03-11T13:35:58.938Z,24.00
2019-03-11T13:38:27.246Z,24.10
2019-03-11T13:40:55.599Z,24.20
2019-03-11T13:43:43.366Z,24.30
2019-03-11T13:46:11.767Z,24.50
2019-03-11T13:48:40.214Z,25.20
2019-03-11T13:51:08.719Z,24.60
2019-03-11T13:53:37.081Z,24.60
2019-03-11T13:56:05.518Z,24.50
2019-03-11T13:58:34.006Z,24.10
2019-03-11T14:01:02.571Z,24.00
2019-03-11T14:03:31.043Z,24.10
2019-03-11T14:05:59.463Z,24.10
2019-03-11T14:08:27.960Z,24.00
2019-03-11T14:10:56.340Z,22.90
2019-03-11T14:13:24.700Z,22.00
2019-03-11T14:15:53.069Z,21.60
2019-03-11T14:18:21.480Z,21.60
2019-03-11T14:20:49.909Z,21.30
2019-03-11T14:23:18.447Z,21.10
2019-03-11T14:25:46.907Z,21.10
2019-03-11T14:28:15.254Z,21.30
2019-03-11T14:30:43.705Z,21.60
2019-03-11T14:33:12.076Z,21.90
2019-03-11T14:35:40.537Z,22.10
2019-03-11T14:38:09.980Z,22.00
2019-03-11T14:40:38.287Z,22.20
2019-03-11T14:43:06.758Z,22.10
2019-03-11T14:45:35.271Z,22.10
2019-03-11T14:48:03.725Z,22.00
2019-03-11T14:50:32.176Z,21.80
2019-03-11T14:53:00.627Z,21.40
2019-03-11T14:55:29.118Z,21.10
2019-03-11T14:57:57.484Z,21.00
2019-03-11T15:00:25.864Z,21.00
2019-03-11T15:02:54.383Z,21.20
2019-03-11T15:05:22.871Z,21.50
2019-03-11T15:07:51.258Z,21.50
2019-03-11T15:10:20.105Z,21.40
2019-03-11T15:12:48.883Z,21.50
2019-03-11T15:15:19.196Z,21.80
2019-03-11T15:17:47.664Z,22.10
2019-03-11T15:20:16.146Z,22.40
2019-03-11T15:22:44.517Z,22.60
2019-03-11T15:25:13.824Z,22.70
2019-03-11T15:27:42.292Z,22.60
2019-03-11T15:30:18.717Z,22.80
2019-03-11T15:32:47.113Z,22.30
2019-03-11T15:35:15.544Z,22.60
2019-03-11T15:37:44.005Z,22.80
2019-03-11T15:40:14.213Z,22.50
2019-03-11T15:42:42.576Z,22.40
2019-03-11T15:45:16.175Z,22.50
2019-03-11T15:47:44.586Z,22.70
2019-03-11T15:50:18.826Z,22.60
2019-03-11T15:52:47.348Z,22.30
2019-03-11T15:55:17.054Z,21.90
2019-03-11T15:57:45.440Z,21.70
2019-03-11T16:00:33.402Z,21.80
2019-03-11T16:03:01.862Z,22.00
2019-03-11T16:05:30.391Z,21.80
2019-03-11T16:07:58.917Z,21.70
2019-03-11T16:10:27.374Z,21.60
2019-03-11T16:12:55.736Z,21.50
2019-03-11T16:15:24.251Z,21.30
2019-03-11T16:17:52.660Z,21.10
2019-03-11T16:20:27.433Z,20.70
2019-03-11T16:22:55.952Z,20.80
2019-03-11T16:25:23.681Z,19.40
